PWSweather.com
Personal Weather Stations
Station Observations
OBERT
Bodensee Hinterland, OberteuringenDE

Bodensee HinterlandOberteuringenDE

Lat: 47.714675, Lon: 9.44447

Elevation: 1427

Station Type: Wunder Weather Station

Latest ConditionsUpdated 9:38:20 PM GMT+01:01 Sunday, Nov 17, 2019
Currently Today's Max Today's Min Today's Average
Temperature 38.1°F3.4°C 41.5°F5.3°C 38.1°F3.4°C 39.8°F4.3°C
Dew Point 38.1°F3.4°C 41.5°F5.3°C -0.1°F-17.8°C 38.0°F3.3°C
Winds 2.1 mph N3.4 kmh N 7.4 mph -11.9 kmh - - 2.9 mph 4.7 kmh
Wind Gusts 8.1 mph13.0 kmh 12.1 mph19.5 kmh - -
Humidity 100% 100% -5% 95%
Pressure 29.67 in1004.7 mb 29.84 in1010.5 mb 29.58 in1001.7 mb -
Hour Temp Dew Point Humidity Winds Wind Gusts Pressure Precip Precip Rate Daily Precip Total
09:38 PM 38.1°F3.4°C 38.1°F3.4°C 100% 2.1 mph N3.4 kmh N 8.1 mph13.0 kmh 29.67 in1004.7 mb 0.00 in0.0 mm 0.00 in0.0 mm 0.00 in0.0 mm
09:08 PM 38.4°F3.6°C 38.4°F3.6°C 100% 3.8 mph N6.1 kmh N 8.4 mph13.5 kmh 29.66 in1004.4 mb 0.00 in0.0 mm 0.00 in0.0 mm 0.00 in0.0 mm
08:38 PM 38.8°F3.8°C 38.8°F3.8°C 100% 4.3 mph N6.9 kmh N 11.2 mph18.0 kmh 29.65 in1004.1 mb 0.00 in0.0 mm 0.00 in0.0 mm 0.00 in0.0 mm
08:08 PM 39.2°F4.0°C 39.2°F4.0°C 100% 3.3 mph 5.3 kmh 8.7 mph14.0 kmh 29.64 in1003.7 mb 0.00 in0.0 mm 0.00 in0.0 mm 0.00 in0.0 mm
07:38 PM 39.7°F4.3°C 39.7°F4.3°C 100% 4.3 mph 6.9 kmh 7.5 mph12.1 kmh 29.64 in1003.7 mb 0.00 in0.0 mm 0.00 in0.0 mm 0.00 in0.0 mm
07:08 PM 40.4°F4.7°C -0.1°F-17.8°C -5% 0.5 mph N0.8 kmh N 3.1 mph5.0 kmh 29.63 in1003.4 mb 0.00 in0.0 mm 0.00 in0.0 mm 0.00 in0.0 mm
06:38 PM 40.2°F4.6°C -0.1°F-17.8°C -5% 1.4 mph 2.3 kmh 4.6 mph7.4 kmh 29.63 in1003.4 mb 0.00 in0.0 mm 0.00 in0.0 mm 0.00 in0.0 mm
06:26 PM 40.4°F4.7°C 40.4°F4.7°C 100% 0.7 mph N1.1 kmh N 4.0 mph6.4 kmh 29.63 in1003.4 mb 0.00 in0.0 mm 0.00 in0.0 mm 0.00 in0.0 mm
05:56 PM 40.2°F4.6°C 40.2°F4.6°C 100% Calm Calm -- 29.62 in1003.0 mb 0.00 in0.0 mm 0.00 in0.0 mm 0.00 in0.0 mm
05:26 PM 40.2°F4.6°C 40.2°F4.6°C 100% Calm Calm -- 29.61 in1002.7 mb 0.00 in0.0 mm 0.00 in0.0 mm 0.00 in0.0 mm
04:56 PM 40.2°F4.6°C 40.2°F4.6°C 100% Calm Calm -- 29.60 in1002.4 mb 0.00 in0.0 mm 0.00 in0.0 mm 0.00 in0.0 mm
04:26 PM 40.6°F4.8°C 40.6°F4.8°C 100% Calm Calm -- 29.59 in1002.0 mb 0.00 in0.0 mm 0.00 in0.0 mm 0.00 in0.0 mm
03:56 PM 40.8°F4.9°C 40.8°F4.9°C 100% Calm Calm -- 29.60 in1002.4 mb 0.00 in0.0 mm 0.00 in0.0 mm 0.00 in0.0 mm
03:26 PM 41.0°F5.0°C 41.0°F5.0°C 100% Calm Calm -- 29.59 in1002.0 mb 0.00 in0.0 mm 0.00 in0.0 mm 0.00 in0.0 mm
02:56 PM 41.0°F5.0°C 41.0°F5.0°C 100% 0.2 mph SSE0.3 kmh SSE 0.6 mph1.0 kmh 29.58 in1001.7 mb 0.00 in0.0 mm 0.00 in0.0 mm 0.00 in0.0 mm
02:26 PM 41.5°F5.3°C 41.5°F5.3°C 100% 1.5 mph S2.4 kmh S 2.5 mph4.0 kmh 29.58 in1001.7 mb 0.00 in0.0 mm 0.00 in0.0 mm 0.00 in0.0 mm
01:56 PM 41.3°F5.2°C 41.3°F5.2°C 100% 0.7 mph S1.1 kmh S 4.6 mph7.4 kmh 29.58 in1001.7 mb 0.00 in0.0 mm 0.00 in0.0 mm 0.00 in0.0 mm
01:26 PM 41.1°F5.1°C 41.1°F5.1°C 100% 0.9 mph SSE1.4 kmh SSE 3.4 mph5.5 kmh 29.60 in1002.4 mb 0.00 in0.0 mm 0.00 in0.0 mm 0.00 in0.0 mm
12:56 PM 41.3°F5.2°C 41.3°F5.2°C 100% Calm Calm 3.7 mph6.0 kmh 29.61 in1002.7 mb 0.00 in0.0 mm 0.00 in0.0 mm 0.00 in0.0 mm
12:26 PM 40.8°F4.9°C 40.8°F4.9°C 100% 3.9 mph SE6.3 kmh SE 7.8 mph12.6 kmh 29.61 in1002.7 mb 0.00 in0.0 mm 0.00 in0.0 mm 0.00 in0.0 mm
11:56 AM 40.8°F4.9°C 40.8°F4.9°C 100% 3.5 mph SE5.6 kmh SE 8.1 mph13.0 kmh 29.61 in1002.7 mb 0.00 in0.0 mm 0.00 in0.0 mm 0.00 in0.0 mm
11:26 AM 40.6°F4.8°C 40.6°F4.8°C 100% 3.6 mph S5.8 kmh S 6.5 mph10.5 kmh 29.62 in1003.0 mb 0.00 in0.0 mm 0.00 in0.0 mm 0.00 in0.0 mm
10:56 AM 40.4°F4.7°C 40.4°F4.7°C 100% 4.9 mph S7.9 kmh S 10.0 mph16.1 kmh 29.63 in1003.4 mb 0.00 in0.0 mm 0.00 in0.0 mm 0.00 in0.0 mm
10:26 AM 39.9°F4.4°C 39.9°F4.4°C 100% 5.5 mph S8.9 kmh S 9.0 mph14.5 kmh 29.66 in1004.4 mb 0.00 in0.0 mm 0.00 in0.0 mm 0.00 in0.0 mm
09:56 AM 39.9°F4.4°C 39.9°F4.4°C 100% 4.7 mph SSE7.6 kmh SSE 8.7 mph14.0 kmh 29.66 in1004.4 mb 0.00 in0.0 mm 0.00 in0.0 mm 0.00 in0.0 mm
09:26 AM 39.7°F4.3°C 39.7°F4.3°C 100% 3.4 mph SSE5.5 kmh SSE 6.2 mph10.0 kmh 29.67 in1004.7 mb 0.00 in0.0 mm 0.00 in0.0 mm 0.00 in0.0 mm
08:56 AM 39.9°F4.4°C 39.9°F4.4°C 100% 0.2 mph SSW0.3 kmh SSW 2.5 mph4.0 kmh 29.69 in1005.4 mb 0.00 in0.0 mm 0.00 in0.0 mm 0.00 in0.0 mm
08:26 AM 39.7°F4.3°C 39.7°F4.3°C 100% 4.0 mph SSE6.4 kmh SSE 5.0 mph8.0 kmh 29.69 in1005.4 mb 0.00 in0.0 mm 0.00 in0.0 mm 0.00 in0.0 mm
07:56 AM 39.3°F4.1°C 39.3°F4.1°C 100% 2.5 mph SSW4.0 kmh SSW 8.1 mph13.0 kmh 29.70 in1005.8 mb 0.00 in0.0 mm 0.00 in0.0 mm 0.00 in0.0 mm
07:26 AM 39.2°F4.0°C 39.2°F4.0°C 100% Calm Calm -- 29.70 in1005.8 mb 0.00 in0.0 mm 0.00 in0.0 mm 0.00 in0.0 mm
06:56 AM 39.3°F4.1°C 39.3°F4.1°C 100% Calm Calm -- 29.71 in1006.1 mb 0.00 in0.0 mm 0.00 in0.0 mm 0.00 in0.0 mm
06:26 AM 39.9°F4.4°C 39.9°F4.4°C 100% 2.3 mph E3.7 kmh E 8.1 mph13.0 kmh 29.71 in1006.1 mb 0.00 in0.0 mm 0.00 in0.0 mm 0.00 in0.0 mm
05:56 AM 39.5°F4.2°C 39.5°F4.2°C 100% 2.1 mph SE3.4 kmh SE 4.6 mph7.4 kmh 29.73 in1006.8 mb 0.00 in0.0 mm 0.00 in0.0 mm 0.00 in0.0 mm
05:26 AM 39.5°F4.2°C 39.5°F4.2°C 100% 2.6 mph S4.2 kmh S 3.7 mph6.0 kmh 29.74 in1007.1 mb 0.00 in0.0 mm 0.00 in0.0 mm 0.00 in0.0 mm
04:56 AM 39.5°F4.2°C 39.5°F4.2°C 100% 2.1 mph S3.4 kmh S 5.0 mph8.0 kmh 29.75 in1007.5 mb 0.00 in0.0 mm 0.00 in0.0 mm 0.00 in0.0 mm
04:26 AM 39.5°F4.2°C 39.5°F4.2°C 100% 4.2 mph SSE6.8 kmh SSE 7.8 mph12.6 kmh 29.76 in1007.8 mb 0.00 in0.0 mm 0.00 in0.0 mm 0.00 in0.0 mm
03:56 AM 39.7°F4.3°C 39.7°F4.3°C 100% 6.3 mph S10.1 kmh S 11.8 mph19.0 kmh 29.76 in1007.8 mb 0.00 in0.0 mm 0.00 in0.0 mm 0.00 in0.0 mm
03:26 AM 39.3°F4.1°C 39.3°F4.1°C 100% 7.4 mph S11.9 kmh S 11.2 mph18.0 kmh 29.77 in1008.1 mb 0.00 in0.0 mm 0.00 in0.0 mm 0.00 in0.0 mm
02:56 AM 38.8°F3.8°C 38.8°F3.8°C 100% 5.9 mph SSE9.5 kmh SSE 10.3 mph16.6 kmh 29.78 in1008.5 mb 0.00 in0.0 mm 0.00 in0.0 mm 0.00 in0.0 mm
02:26 AM 39.0°F3.9°C 39.0°F3.9°C 100% 6.4 mph SSE10.3 kmh SSE 10.3 mph16.6 kmh 29.78 in1008.5 mb 0.00 in0.0 mm 0.00 in0.0 mm 0.00 in0.0 mm
01:56 AM 39.3°F4.1°C 39.3°F4.1°C 100% 7.2 mph SSE11.6 kmh SSE 11.2 mph18.0 kmh 29.80 in1009.1 mb 0.00 in0.0 mm 0.00 in0.0 mm 0.00 in0.0 mm
01:26 AM 39.2°F4.0°C 39.2°F4.0°C 100% 6.1 mph SSE9.8 kmh SSE 11.8 mph19.0 kmh 29.81 in1009.5 mb 0.00 in0.0 mm 0.00 in0.0 mm 0.00 in0.0 mm
12:56 AM 38.6°F3.7°C 38.6°F3.7°C 100% 6.3 mph SSE10.1 kmh SSE 10.3 mph16.6 kmh 29.82 in1009.8 mb 0.00 in0.0 mm 0.00 in0.0 mm 0.00 in0.0 mm
12:26 AM 38.3°F3.5°C 38.3°F3.5°C 100% 5.3 mph SSE8.5 kmh SSE 9.6 mph15.4 kmh 29.84 in1010.5 mb 0.00 in0.0 mm 0.00 in0.0 mm 0.00 in0.0 mm
12:13 AM 38.6°F3.7°C 38.6°F3.7°C 100% 6.5 mph SE10.5 kmh SE 12.1 mph19.5 kmh 29.83 in1010.2 mb 0.00 in0.0 mm 0.00 in0.0 mm 0.00 in0.0 mm